Nearby METAR Reports

 

KTAN - Taunton, Massachusetts, USA
Distance from station: W 5mi, 8km
Updated: Sun, 24-Oct-2021 2:52pm EDT
Clear
Clear
 Wind from varies
Wind: varies 7 mph , 11 km/h
Temperature: 57°F , 14°C
Dew Point: 32°F , 0°C
Humidity: 39%
Barometer: 30.12 inHg , 1020 hPa
Clouds: Clear
Visibility: 10 miles , 16 km
2021/10/24 18:52 KTAN 241852Z AUTO VRB06KT 10SM CLR 14/00 A3012 RMK AO2 SLP200 T01440000
KPYM - Plymouth, Massachusetts, USA
Distance from station: ENE 10mi, 16km
Updated: Sun, 24-Oct-2021 2:52pm EDT
Clear
Clear
 Wind from SW
Wind: SW 13 mph , 20 km/h
Temperature: 57°F , 14°C
Dew Point: 32°F , 0°C
Humidity: 39%
Barometer: 30.12 inHg , 1020 hPa
Clouds: Clear
Visibility: 10 miles , 16 km
2021/10/24 18:52 KPYM 241852Z AUTO 23011KT 10SM CLR 14/00 A3012 RMK AO2 SLP201 T01390000
 
KEWB - New Bedford, Massachusetts, USA
Distance from station: S 14mi, 23km
Updated: Sun, 24-Oct-2021 2:53pm EDT
Clear
Clear
 Wind from SW
Wind: SW 9 mph , 15 km/h
Temperature: 57°F , 14°C
Dew Point: 34°F , 1°C
Humidity: 41%
Barometer: 30.13 inHg , 1020.3 hPa
Clouds: Clear
Visibility: 10 miles , 16 km
2021/10/24 18:53 KEWB 241853Z 23008KT 10SM CLR 14/01 A3013 RMK AO2 SLP202 T01390006
KGHG - Marshfield, Massachusetts, USA
Distance from station: NE 20mi, 31km
Updated: Sun, 24-Oct-2021 3:35pm EDT
Clear
Clear
 Wind from SW
Wind: SW 8 mph , 13 km/h
Temperature: 57°F , 14°C
Dew Point: 32°F , 0°C
Humidity: 39%
Barometer: 30.12 inHg , 1020 hPa
Clouds: Clear
Visibility: 10 miles , 16 km
2021/10/24 19:35 KGHG 241935Z AUTO 23007KT 10SM CLR 14/M00 A3012 RMK AO2
 
KOWD - Norwood, Massachusetts, USA
Distance from station: NNW 24mi, 39km
Updated: Sun, 24-Oct-2021 2:53pm EDT
Clear
Clear
 Wind from W
Wind: W 9 mph , 15 km/h
Temperature: 59°F , 15°C
Dew Point: 28°F , -2°C
Humidity: 31%
Barometer: 30.11 inHg , 1019.6 hPa
Clouds: Clear
Visibility: 10 miles , 16 km
2021/10/24 18:53 KOWD 241853Z 26008KT 230V310 10SM CLR 15/M02 A3011 RMK AO2 SLP197 T01501017
KMQE - East Milton, Massachusetts, USA
Distance from station: NNW 25mi, 40km
Updated: Thu, 01-Jul-2021 9:51am EDT
NOT Current

 Wind from WNW
Wind: WNW 9 mph , 15 km/h
Temperature: 75°F , 24°C
Dew Point: 70°F , 21°C
Humidity: 83%
Barometer: 29.86 inHg , 1011.2 hPa
2021/07/01 13:51 KMQE 011351Z AUTO 30008KT 24/21 A2986 RMK AO1 SLP116 T02440206
 
KFMH - Falmouth/Otis Ab, Massachusetts, USA
Distance from station: SE 27mi, 44km
Updated: Sun, 24-Oct-2021 3:45pm EDT
Clear
Clear
 Wind from WSW
Wind: WSW 13 mph , 20 km/h
Temperature: 55°F , 13°C
Dew Point: 36°F , 2°C
Humidity: 47%
Barometer: 30.13 inHg , 1020.3 hPa
Clouds: Clear
Visibility: 10 miles , 16 km
2021/10/24 19:45 KFMH 241945Z 24011KT 10SM CLR 13/02 A3013
KPVD - Providence/Green, Rhode Island, USA
Distance from station: WSW 29mi, 47km
Updated: Sun, 24-Oct-2021 2:51pm EDT
Few Clouds
Few Clouds
 Wind from W
Wind: W 9 mph , 15 km/h
Temperature: 59°F , 15°C
Dew Point: 34°F , 1°C
Humidity: 39%
Barometer: 30.14 inHg , 1020.7 hPa
Clouds: Few Clouds
Visibility: 10 miles , 16 km
Cloud details: Few Clouds 25000 ft
2021/10/24 18:51 KPVD 241851Z 26008KT 10SM FEW250 15/01 A3014 RMK AO2 SLP205 T01500006
 
KSFZ - Pawtucket, Rhode Island, USA
Distance from station: W 30mi, 48km
Updated: Sun, 24-Oct-2021 2:56pm EDT
Clear
Clear
 Wind from varies
Wind: varies 6 mph , 9 km/h
Temperature: 57°F , 14°C
Dew Point: 34°F , 1°C
Humidity: 41%
Barometer: 30.13 inHg , 1020.3 hPa
Clouds: Clear
Visibility: 10 miles , 16 km
2021/10/24 18:56 KSFZ 241856Z AUTO VRB05KT 10SM CLR 14/01 A3013 RMK AO2 SLP210 T01440006
KUUU - Newport, Rhode Island, USA
Distance from station: SW 31mi, 50km
Updated: Sun, 24-Oct-2021 2:53pm EDT
Clear
Clear
 Wind from SSW
Wind: SSW 8 mph , 13 km/h
Temperature: 55°F , 13°C
Dew Point: 39°F , 4°C
Humidity: 55%
Barometer: 30.13 inHg , 1020.3 hPa
Clouds: Clear
Visibility: 10 miles , 16 km
2021/10/24 18:53 KUUU 241853Z AUTO 20007KT 10SM CLR 13/04 A3013 RMK AO2 SLP203 T01280039
 
KOQU - N. Kingston/Quon, Rhode Island, USA
Distance from station: SW 32mi, 52km
Updated: Sun, 24-Oct-2021 2:50pm EDT
Clear
Clear
 Wind from NW
Wind: NW 9 mph , 15 km/h
Temperature: 59°F , 15°C
Dew Point: 30°F , -1°C
Humidity: 34%
Barometer: 30.13 inHg , 1020.3 hPa
Clouds: Clear
Visibility: 10 miles , 16 km
2021/10/24 18:50 KOQU 241850Z 32008KT 10SM SKC 15/M01 A3013
KBOS - Boston, Massachusetts, USA
Distance from station: N 33mi, 54km
Updated: Sun, 24-Oct-2021 2:54pm EDT
Few Clouds
Few Clouds
 Wind from WSW
Wind: WSW 14 mph , 22 km/h, Gust: 20 mph , 31 km/h
Temperature: 57°F , 14°C
Dew Point: 28°F , -2°C
Humidity: 33%
Barometer: 30.12 inHg , 1020 hPa
Clouds: Few Clouds
Visibility: 10 miles , 16 km
Cloud details: Few Clouds 25000 ft
2021/10/24 18:54 KBOS 241854Z 25012G17KT 10SM FEW250 14/M02 A3012 RMK AO2 SLP197 T01391017
 
KHYA - Hyannis, Massachusetts, USA
Distance from station: ESE 37mi, 59km
Updated: Sun, 24-Oct-2021 2:56pm EDT
Clear
Clear
 Wind from W
Wind: W 13 mph , 20 km/h
Temperature: 57°F , 14°C
Dew Point: 36°F , 2°C
Humidity: 44%
Barometer: 30.12 inHg , 1020 hPa
Clouds: Clear
Visibility: 10 miles , 16 km
2021/10/24 18:56 KHYA 241856Z 26011KT 10SM CLR 14/02 A3012 RMK AO2 SLP199 T01390017
KMVY - Marthas Vineyard, Massachusetts, USA
Distance from station: SSE 37mi, 60km
Updated: Sun, 24-Oct-2021 2:53pm EDT
Clear
Clear
 Wind from W
Wind: W 10 mph , 17 km/h
Temperature: 55°F , 13°C
Dew Point: 36°F , 2°C
Humidity: 47%
Barometer: 30.14 inHg , 1020.7 hPa
Clouds: Clear
Visibility: 10 miles , 16 km
2021/10/24 18:53 KMVY 241853Z 28009KT 10SM CLR 13/02 A3014 RMK AO2 SLP207 T01330022
 
KPVC - Provincetown, Massachusetts, USA
Distance from station: ENE 38mi, 61km
Updated: Sun, 24-Oct-2021 2:56pm EDT
Clear
Clear
 Wind from W
Wind: W 5 mph , 7 km/h
Temperature: 54°F , 12°C
Dew Point: 36°F , 2°C
Humidity: 51%
Barometer: 30.13 inHg , 1020.3 hPa
Clouds: Clear
Visibility: 10 miles , 16 km
2021/10/24 18:56 KPVC 241856Z AUTO 26004KT 10SM CLR 12/02 A3013 RMK AO2 SLP203 T01220022
KBED - Bedford, Massachusetts, USA
Distance from station: NNW 44mi, 72km
Updated: Sun, 24-Oct-2021 2:51pm EDT
Clear
Clear
 Wind from W
Wind: W 9 mph , 15 km/h
Temperature: 57°F , 14°C
Dew Point: 30°F , -1°C
Humidity: 36%
Barometer: 30.10 inHg , 1019.3 hPa
Clouds: Clear
Visibility: 10 miles , 16 km
2021/10/24 18:51 KBED 241851Z 28008KT 10SM CLR 14/M01 A3010 RMK AO2 SLP207 T01441006
 
KBVY - Beverly, Massachusetts, USA
Distance from station: 0 48mi, 77km
Updated: Sun, 24-Oct-2021 2:53pm EDT
Clear
Clear
 Wind from WNW
Wind: WNW 9 mph , 15 km/h
Temperature: 57°F , 14°C
Dew Point: 30°F , -1°C
Humidity: 36%
Barometer: 30.11 inHg , 1019.6 hPa
Clouds: Clear
Visibility: 10 miles , 16 km
2021/10/24 18:53 KBVY 241853Z 29008KT 10SM CLR 14/M01 A3011 RMK AO2 SLP191 T01441006
KCQX - Chatham, Massachusetts, USA
Distance from station: ESE 49mi, 80km
Updated: Sun, 24-Oct-2021 2:52pm EDT
Clear
Clear
 Wind from varies
Wind: varies 5 mph , 7 km/h
Temperature: 57°F , 14°C
Dew Point: 36°F , 2°C
Humidity: 44%
Barometer: 30.14 inHg , 1020.7 hPa
Clouds: Clear
Visibility: 10 miles , 16 km
2021/10/24 18:52 KCQX 241852Z AUTO VRB04KT 10SM CLR 14/02 A3014 RMK AO2 SLP206 T01440022